Peculiar, Missouri
Current Conditions -  °F | °C
As of 3:53 AM on Monday 26 Jan 2015 (Local Time) from KOJC Reporting Station
Haze Haze  
Wind Chill: 21°   Ceiling: Unl
Heat Index: 26°   Visibility: 6mi
Dew Point: 25°   Wind: 5mph
Humidity: 96%   Direction: 240°WSW
Pressure: 30.07"   Gusts: NA
Location:  38.72°N, 94.46°W
Report Text: KOJC 260953Z AUTO 24004KT 6SM BR CLR M03/M04 A3007 RMK AO2 SLP191 T10331039
Loading
Personal Weather Stations






























Interactive Weather Map New forecast layout! Learn more

10-Day Weather Forecast

Advertisements
Track Severe Weather on mobile